Аэропорт: Сыктывкар. Сыктывкар

ICAO: UUYY

METAR:
2021-01-27 03:00:00
UUYY 270300Z 17004MPS 9999 SCT006 BKN016CB M02/M02 Q1014 R18/590335 NOSIG RMK QFE752/1003
METAR:
2021-01-27 02:00:00
TAF UUYY 270200Z 2703/2803 18005G10MPS 6000 -SHSN BKN007 BKN017CB TEMPO 2703/2707 2000 SHSN FZDZ BR BKN005 BKN011CB BECMG 2707/2708 BKN016 BKN020CB TEMPO 2708/2712 -FZRA BKN011 BKN016CB TEMPO 2712/2803 1500 SHSN FZRA BKN007 BKN016CB